Time;durP1;ratioP1;P1;durP2;ratioP2;P2;SDS_P1;SDS_P2;PMS_P1;PMS_P2;Temp;Humidity;BMP_temperature;BMP_pressure;BME280_temperature;BME280_humidity;BME280_pressure;Samples;Min_cycle;Max_cycle;Signal;HPM_P1;HPM_P2
2022/02/19 00:00:30;;;;;;;5.13;1.20;;;;;;;8.04;47.27;98859.84;4985065;28;20049;-73
2022/02/19 00:02:55;;;;;;;6.72;1.40;;;;;;;7.95;47.36;98876.69;4984320;28;20488;-73
2022/02/19 00:05:22;;;;;;;13.27;1.60;;;;;;;7.93;47.09;98896.88;4983233;28;20034;-73
2022/02/19 00:07:47;;;;;;;7.15;1.65;;;;;;;8.00;46.75;98910.75;4985797;28;20407;-73
2022/02/19 00:10:15;;;;;;;5.57;1.30;;;;;;;8.03;47.03;98881.78;4982743;28;20027;-73
2022/02/19 00:12:40;;;;;;;6.35;1.52;;;;;;;7.99;46.01;98894.13;4984415;28;20398;-73
2022/02/19 00:15:06;;;;;;;8.68;1.63;;;;;;;7.84;46.22;98883.94;4984612;28;20033;-74
2022/02/19 00:17:32;;;;;;;8.73;1.20;;;;;;;7.90;45.01;98908.31;4982617;28;20030;-73
2022/02/19 00:20:00;;;;;;;9.15;1.27;;;;;;;7.95;46.35;98896.84;4985309;28;20046;-73
2022/02/19 00:22:27;;;;;;;10.10;1.50;;;;;;;7.83;45.42;98911.97;4981426;28;20077;-73
2022/02/19 00:24:52;;;;;;;7.78;1.60;;;;;;;7.84;45.98;98902.34;4983717;28;20045;-74
2022/02/19 00:27:18;;;;;;;6.28;1.50;;;;;;;7.88;45.21;98906.59;4985446;28;20043;-73
2022/02/19 00:29:44;;;;;;;10.60;2.15;;;;;;;7.82;45.44;98906.75;4982427;28;20434;-73
2022/02/19 00:32:09;;;;;;;4.68;1.20;;;;;;;7.92;45.96;98883.78;4981659;28;20031;-73
2022/02/19 00:34:35;;;;;;;7.07;1.38;;;;;;;7.93;44.99;98938.03;4981971;28;20044;-73
2022/02/19 00:37:01;;;;;;;9.38;2.10;;;;;;;7.85;44.99;98988.97;4982345;28;20038;-73
2022/02/19 00:39:27;;;;;;;12.05;1.80;;;;;;;7.83;46.19;98979.38;4981482;28;20553;-73
2022/02/19 00:41:52;;;;;;;6.68;1.50;;;;;;;7.72;45.73;99015.50;4982937;28;20046;-73
2022/02/19 00:44:18;;;;;;;9.13;1.63;;;;;;;7.66;45.98;98942.97;4983209;28;20038;-74
2022/02/19 00:46:43;;;;;;;9.20;1.80;;;;;;;7.59;44.87;98978.09;4967268;28;20398;-74
2022/02/19 00:49:10;;;;;;;6.15;1.23;;;;;;;7.61;46.25;98971.06;4981928;28;20570;-74
2022/02/19 00:51:39;;;;;;;5.50;1.45;;;;;;;7.52;44.39;98926.59;4983957;28;20097;-73
2022/02/19 00:54:05;;;;;;;8.80;1.60;;;;;;;7.59;44.98;98938.72;4964171;28;20490;-74
2022/02/19 00:56:30;;;;;;;7.53;1.55;;;;;;;7.55;44.56;98963.31;4984540;28;20033;-73
2022/02/19 00:58:55;;;;;;;13.10;1.50;;;;;;;7.50;44.59;98952.03;4981740;28;20522;-73
2022/02/19 01:01:23;;;;;;;8.00;1.77;;;;;;;7.50;44.01;98980.91;4966763;28;20042;-73
2022/02/19 01:03:54;;;;;;;6.72;1.73;;;;;;;7.46;43.90;98938.06;4951691;28;20033;-73
2022/02/19 01:06:20;;;;;;;8.90;1.98;;;;;;;7.41;44.19;98988.06;4964479;28;20052;-73
2022/02/19 01:08:49;;;;;;;9.55;1.75;;;;;;;7.49;44.20;98976.53;4984239;28;20573;-73
2022/02/19 01:11:15;;;;;;;9.95;1.77;;;;;;;7.37;45.10;98957.50;4983231;28;20080;-73
2022/02/19 01:13:41;;;;;;;9.98;1.75;;;;;;;7.32;45.20;98982.97;4964652;28;20037;-74
2022/02/19 01:16:06;;;;;;;9.07;2.42;;;;;;;7.17;44.61;98978.84;4984240;28;20035;-74
2022/02/19 01:18:31;;;;;;;7.18;1.58;;;;;;;7.20;43.25;98962.19;4964844;28;20050;-73
2022/02/19 01:20:57;;;;;;;12.13;1.40;;;;;;;7.31;43.19;98976.00;4983345;28;20038;-73
2022/02/19 01:23:23;;;;;;;10.15;1.67;;;;;;;7.37;42.16;99014.38;4965836;28;20042;-73
2022/02/19 01:25:48;;;;;;;8.10;1.40;;;;;;;7.36;42.65;98979.41;4980052;28;20035;-73
2022/02/19 01:28:13;;;;;;;9.05;1.70;;;;;;;7.30;42.37;98986.50;4966902;28;20030;-73
2022/02/19 01:30:39;;;;;;;7.72;1.55;;;;;;;7.32;42.68;98992.59;4964661;28;20127;-73
2022/02/19 01:33:05;;;;;;;8.35;1.90;;;;;;;7.25;42.82;98978.72;4965246;28;20173;-73
2022/02/19 01:35:32;;;;;;;5.88;1.15;;;;;;;7.21;43.18;98982.28;4982375;28;20065;-73
2022/02/19 01:37:58;;;;;;;7.15;1.50;;;;;;;7.23;43.52;98960.38;4967860;28;20442;-73
2022/02/19 01:40:24;;;;;;;7.82;1.70;;;;;;;7.16;42.71;98950.03;4964350;28;20049;-74
2022/02/19 01:42:49;;;;;;;8.07;1.85;;;;;;;7.20;41.90;98951.69;4965005;28;20104;-73
2022/02/19 01:45:16;;;;;;;11.18;1.77;;;;;;;7.26;42.20;98972.59;4983142;28;20057;-73
2022/02/19 01:47:42;;;;;;;8.57;1.75;;;;;;;7.36;41.68;99003.03;4960551;28;20053;-73
2022/02/19 01:50:13;;;;;;;8.02;1.90;;;;;;;7.30;42.16;99000.47;4965201;28;20045;-73
2022/02/19 01:52:41;;;;;;;9.05;1.40;;;;;;;7.23;42.89;99046.97;4981733;28;20034;-73
2022/02/19 01:55:10;;;;;;;9.02;1.50;;;;;;;7.17;42.61;99035.69;4962560;28;20031;-73
2022/02/19 01:57:43;;;;;;;;;;;;;;;7.12;43.61;99048.88;4952937;28;20773;-73
2022/02/19 02:00:21;;;;;;;11.20;1.83;;;;;;;7.09;43.96;99017.47;4960517;28;20310;-73
2022/02/19 02:02:56;;;;;;;8.80;2.05;;;;;;;7.15;43.37;99034.84;4979990;28;20376;-73
2022/02/19 02:05:37;;;;;;;;;;;;;;;7.24;44.31;99011.09;4961229;28;20061;-74
2022/02/19 02:08:07;;;;;;;11.90;2.10;;;;;;;7.21;43.09;99026.91;4982110;28;19918;-73
2022/02/19 02:10:34;;;;;;;9.57;2.10;;;;;;;7.23;43.26;99056.59;4977233;28;20049;-73
2022/02/19 02:13:00;;;;;;;11.10;2.20;;;;;;;7.13;43.42;99024.41;4964848;28;20044;-73
2022/02/19 02:15:29;;;;;;;8.07;1.60;;;;;;;7.15;44.13;99029.59;4965333;28;20050;-73
2022/02/19 02:18:03;;;;;;;11.82;2.38;;;;;;;7.25;43.04;99083.66;4961331;28;20036;-73
2022/02/19 02:20:29;;;;;;;9.38;1.70;;;;;;;7.34;42.70;99025.81;4981693;28;20044;-73
2022/02/19 02:22:55;;;;;;;8.82;1.80;;;;;;;7.30;44.48;99042.47;4965563;28;20128;-73
2022/02/19 02:25:30;;;;;;;8.02;1.52;;;;;;;7.30;43.58;99031.13;4980053;28;20471;-73
2022/02/19 02:27:56;;;;;;;6.75;1.50;;;;;;;7.25;44.32;99032.03;4964270;28;20096;-73
2022/02/19 02:30:22;;;;;;;15.10;1.90;;;;;;;7.18;44.57;99037.44;4983095;28;20080;-73
2022/02/19 02:32:52;;;;;;;11.75;1.92;;;;;;;7.18;44.50;99047.94;4977705;28;20037;-73
2022/02/19 02:35:18;;;;;;;8.57;1.85;;;;;;;7.17;44.20;99023.44;4948434;28;20654;-73
2022/02/19 02:37:46;;;;;;;6.93;1.60;;;;;;;7.16;44.72;99029.59;4965454;28;20103;-73
2022/02/19 02:40:13;;;;;;;18.30;2.55;;;;;;;7.15;45.71;99027.88;4969532;28;20034;-73
2022/02/19 02:42:38;;;;;;;7.75;2.13;;;;;;;7.09;46.09;99043.69;4963441;28;20031;-73
2022/02/19 02:45:10;;;;;;;14.00;2.60;;;;;;;6.99;46.79;99039.47;4979754;28;20043;-73
2022/02/19 02:47:36;;;;;;;9.38;2.15;;;;;;;6.96;46.87;99031.66;4959758;28;20054;-73
2022/02/19 02:50:04;;;;;;;9.23;1.80;;;;;;;6.85;48.03;99020.47;4965474;28;20415;-73
2022/02/19 02:52:29;;;;;;;6.28;1.48;;;;;;;6.72;47.90;99052.13;4964173;28;20027;-73
2022/02/19 02:54:55;;;;;;;7.72;2.05;;;;;;;6.78;47.99;99043.28;4962292;28;20122;-73
2022/02/19 02:57:21;;;;;;;5.40;1.20;;;;;;;6.69;47.95;99059.16;4969666;28;20030;-73
2022/02/19 02:59:48;;;;;;;8.90;1.67;;;;;;;6.61;47.79;99050.53;4966687;28;20031;-73
2022/02/19 03:02:13;;;;;;;8.70;1.40;;;;;;;6.58;48.15;99057.56;4985883;28;20048;-73
2022/02/19 03:04:38;;;;;;;7.05;1.25;;;;;;;6.64;46.66;99063.59;4984654;28;20034;-73
2022/02/19 03:07:04;;;;;;;9.70;1.80;;;;;;;6.65;47.47;99055.69;4966833;28;20090;-73
2022/02/19 03:09:29;;;;;;;9.07;1.77;;;;;;;6.68;46.78;99067.91;4969261;28;20030;-73
2022/02/19 03:11:55;;;;;;;4.13;1.17;;;;;;;6.73;46.84;99090.56;4968304;28;20027;-73
2022/02/19 03:14:20;;;;;;;4.93;1.10;;;;;;;6.68;46.28;99063.56;4985171;28;20405;-73
2022/02/19 03:16:46;;;;;;;5.68;1.30;;;;;;;6.73;46.36;99082.72;4965559;28;20406;-73
2022/02/19 03:19:13;;;;;;;5.07;1.02;;;;;;;6.69;46.94;99073.13;4969130;28;20494;-73
2022/02/19 03:21:39;;;;;;;15.82;1.70;;;;;;;6.68;47.14;99083.63;4966726;28;20035;-73
2022/02/19 03:24:05;;;;;;;5.63;1.00;;;;;;;6.62;47.12;99094.22;4967528;28;20084;-73
2022/02/19 03:26:31;;;;;;;4.40;1.33;;;;;;;6.49;47.61;99173.00;4984545;28;20034;-73
2022/02/19 03:29:02;;;;;;;6.77;1.10;;;;;;;6.50;48.27;99119.69;4962601;28;20037;-73
2022/02/19 03:31:31;;;;;;;6.07;1.13;;;;;;;6.51;47.01;99117.94;4965131;28;20384;-73
2022/02/19 03:34:12;;;;;;;6.25;1.10;;;;;;;6.48;47.27;99102.25;4966264;28;20053;-73
2022/02/19 03:36:38;;;;;;;7.43;1.25;;;;;;;6.55;47.23;99151.97;4951572;28;20038;-73
2022/02/19 03:39:03;;;;;;;8.48;1.33;;;;;;;6.54;46.78;99146.72;4971156;28;20419;-73
2022/02/19 03:41:29;;;;;;;7.38;1.35;;;;;;;6.43;47.63;99180.06;4965867;28;20031;-72
2022/02/19 03:43:58;;;;;;;9.43;1.20;;;;;;;6.41;47.67;99193.19;4962733;28;20455;-73
2022/02/19 03:46:24;;;;;;;10.80;1.52;;;;;;;6.39;47.57;99160.88;4983566;28;20062;-72
2022/02/19 03:49:08;;;;;;;6.80;1.17;;;;;;;6.31;47.82;99147.88;4981244;28;20046;-73
2022/02/19 03:51:34;;;;;;;3.75;0.75;;;;;;;6.25;48.18;99183.75;4965077;28;20986;-73
2022/02/19 03:54:00;;;;;;;6.28;1.10;;;;;;;6.22;47.99;99152.34;4946349;29;20035;-73
2022/02/19 03:56:28;;;;;;;6.38;1.80;;;;;;;6.12;48.20;99245.88;4968316;28;20554;-73
2022/02/19 03:59:06;;;;;;;6.38;1.15;;;;;;;6.03;48.84;99189.19;4968136;28;20034;-73
2022/02/19 04:01:32;;;;;;;7.68;1.15;;;;;;;6.01;48.75;99182.25;4965407;28;20039;-73
2022/02/19 04:04:03;;;;;;;7.73;0.97;;;;;;;6.00;47.65;99167.38;4966726;28;20057;-73
2022/02/19 04:06:29;;;;;;;6.80;1.50;;;;;;;5.98;48.59;99222.41;4984212;28;20418;-73
2022/02/19 04:08:56;;;;;;;9.18;1.17;;;;;;;5.92;48.26;99185.75;4963659;28;20118;-72
2022/02/19 04:11:21;;;;;;;6.57;1.20;;;;;;;5.92;48.59;99160.47;4968835;28;20510;-72
2022/02/19 04:13:48;;;;;;;8.35;1.70;;;;;;;5.88;48.62;99168.34;4967939;28;20042;-73
2022/02/19 04:16:17;;;;;;;7.38;1.48;;;;;;;5.81;48.43;99177.13;4980383;28;20113;-72
2022/02/19 04:18:47;;;;;;;8.20;1.23;;;;;;;5.78;49.16;99175.41;4949214;28;20034;-72
2022/02/19 04:21:15;;;;;;;7.55;1.20;;;;;;;5.86;48.73;99178.81;4965171;28;20443;-73
2022/02/19 04:23:41;;;;;;;5.35;0.95;;;;;;;5.80;49.52;99201.59;4965639;28;20034;-72
2022/02/19 04:26:09;;;;;;;4.63;1.33;;;;;;;5.81;49.40;99242.59;4967770;28;20133;-73
2022/02/19 04:28:42;;;;;;;3.30;0.90;;;;;;;5.69;49.23;99217.38;4964401;28;20035;-72
2022/02/19 04:31:11;;;;;;;7.20;1.17;;;;;;;5.69;49.28;99254.91;4959074;28;20042;-72
2022/02/19 04:33:37;;;;;;;5.40;1.33;;;;;;;5.70;49.75;99256.63;4983523;28;20040;-72
2022/02/19 04:36:02;;;;;;;6.68;1.27;;;;;;;5.68;49.37;99263.59;4967008;28;20042;-72
2022/02/19 04:38:30;;;;;;;7.05;1.73;;;;;;;5.67;49.41;99279.34;4984023;28;20080;-72
2022/02/19 04:40:57;;;;;;;5.47;0.93;;;;;;;5.68;49.55;99258.38;4964776;28;20074;-72
2022/02/19 04:43:23;;;;;;;6.05;1.00;;;;;;;5.60;49.73;99269.78;4976977;28;20038;-72
2022/02/19 04:45:50;;;;;;;8.48;1.10;;;;;;;5.64;49.70;99272.38;4965354;28;20069;-72
2022/02/19 04:48:15;;;;;;;6.50;1.45;;;;;;;5.64;49.75;99280.22;4966442;28;20058;-72
2022/02/19 04:50:43;;;;;;;7.68;1.20;;;;;;;5.60;49.54;99294.19;4964405;28;20515;-72
2022/02/19 04:53:09;;;;;;;9.60;1.38;;;;;;;5.64;49.61;99285.47;4983237;28;20041;-72
2022/02/19 04:55:36;;;;;;;6.82;1.27;;;;;;;5.57;50.40;99270.66;4965327;28;20027;-72
2022/02/19 04:58:14;;;;;;;6.65;0.95;;;;;;;5.58;50.11;99290.75;4964327;28;20035;-72
2022/02/19 05:00:39;;;;;;;6.72;1.23;;;;;;;5.59;49.79;99292.47;4966182;28;20034;-72
2022/02/19 05:03:20;;;;;;;5.70;1.52;;;;;;;5.60;50.23;99267.16;4982259;28;20042;-72
2022/02/19 05:05:56;;;;;;;5.88;1.30;;;;;;;5.64;50.53;99292.47;4965876;28;20130;-72
2022/02/19 05:08:22;;;;;;;6.18;1.38;;;;;;;5.60;50.11;99319.50;4961591;28;20121;-72
2022/02/19 05:10:49;;;;;;;4.35;0.80;;;;;;;5.61;50.35;99279.41;4951048;28;20449;-72
2022/02/19 05:13:22;;;;;;;6.93;1.08;;;;;;;5.58;50.01;99305.56;4965838;28;20061;-72
2022/02/19 05:15:49;;;;;;;5.82;0.90;;;;;;;5.56;50.42;99312.56;4981921;28;20601;-72
2022/02/19 05:18:28;;;;;;;7.20;1.10;;;;;;;5.56;49.72;99313.44;4966772;28;20034;-72
2022/02/19 05:20:55;;;;;;;7.43;0.95;;;;;;;5.59;49.68;99318.66;4963805;28;20488;-72
2022/02/19 05:23:22;;;;;;;9.85;1.88;;;;;;;5.54;49.38;99316.94;4966668;28;20022;-72
2022/02/19 05:25:49;;;;;;;5.70;1.48;;;;;;;5.57;48.68;99351.81;4964295;28;20435;-71
2022/02/19 05:28:15;;;;;;;6.57;1.42;;;;;;;5.60;49.17;99312.53;4964563;28;20143;-70
2022/02/19 05:30:41;;;;;;;5.63;1.55;;;;;;;5.62;49.88;99331.72;4966329;28;20030;-72
2022/02/19 05:33:25;;;;;;;7.05;1.20;;;;;;;5.49;49.32;99364.91;4983047;28;20092;-71
2022/02/19 05:35:51;;;;;;;6.65;1.10;;;;;;;5.53;49.41;99349.19;4961925;28;20058;-72
2022/02/19 05:38:17;;;;;;;8.32;1.52;;;;;;;5.57;49.18;99362.28;4983216;28;20526;-72
2022/02/19 05:40:47;;;;;;;7.95;1.10;;;;;;;5.63;48.89;99370.13;4965514;28;20038;-72
2022/02/19 05:43:13;;;;;;;10.27;1.40;;;;;;;5.60;48.68;99374.47;4962962;28;20443;-72
2022/02/19 05:45:46;;;;;;;4.57;0.73;;;;;;;5.52;48.78;99387.59;4965303;28;20038;-71
2022/02/19 05:48:16;;;;;;;5.53;1.08;;;;;;;5.52;49.20;99395.44;4981965;28;20578;-72
2022/02/19 05:50:50;;;;;;;6.53;1.35;;;;;;;5.57;48.78;99382.34;4978592;28;20047;-71
2022/02/19 05:53:39;;;;;;;5.68;1.10;;;;;;;5.63;49.33;99425.09;4961778;28;20550;-72
2022/02/19 05:56:05;;;;;;;6.40;1.52;;;;;;;5.62;49.11;99391.06;4964461;28;20034;-74
2022/02/19 05:58:30;;;;;;;7.80;1.23;;;;;;;5.64;49.21;99399.78;4946385;28;20051;-74
2022/02/19 06:01:14;;;;;;;5.63;0.77;;;;;;;5.58;48.94;99436.41;4965356;28;20618;-75
2022/02/19 06:03:44;;;;;;;4.53;0.90;;;;;;;5.62;49.33;99423.31;4961230;28;20038;-74
2022/02/19 06:06:14;;;;;;;7.72;1.20;;;;;;;5.51;49.72;99427.75;4979294;28;20042;-74
2022/02/19 06:08:39;;;;;;;4.72;0.88;;;;;;;5.52;49.86;99437.31;4963509;28;20387;-74
2022/02/19 06:11:05;;;;;;;6.13;1.38;;;;;;;5.58;50.62;99442.56;4963140;28;20040;-73
2022/02/19 06:13:51;;;;;;;8.60;1.20;;;;;;;5.46;51.28;99460.91;4981463;28;20046;-74
2022/02/19 06:16:16;;;;;;;3.50;0.80;;;;;;;5.44;51.19;99450.44;4961102;28;20062;-74
2022/02/19 06:18:52;;;;;;;5.68;1.17;;;;;;;5.41;52.33;99454.81;4963919;28;20502;-75
2022/02/19 06:21:18;;;;;;;5.03;1.30;;;;;;;5.45;52.24;99467.88;4959854;28;20122;-74
2022/02/19 06:23:43;;;;;;;6.97;1.20;;;;;;;5.37;52.04;99480.13;4980223;28;20170;-74
2022/02/19 06:26:09;;;;;;;6.90;1.20;;;;;;;5.53;52.72;99470.50;4964182;28;20045;-74
2022/02/19 06:28:48;;;;;;;8.32;1.10;;;;;;;5.40;52.17;99513.25;4966094;28;20638;-74
2022/02/19 06:31:16;;;;;;;5.97;0.90;;;;;;;5.48;52.47;99494.03;4963146;28;20046;-74
2022/02/19 06:33:42;;;;;;;6.65;1.10;;;;;;;5.58;52.47;99489.66;4963870;28;20053;-74
2022/02/19 06:36:07;;;;;;;8.02;1.60;;;;;;;5.57;51.81;99498.38;4982614;28;20491;-74
2022/02/19 06:38:39;;;;;;;7.35;1.50;;;;;;;5.54;52.26;99487.91;4978310;28;20039;-74
2022/02/19 06:41:09;;;;;;;4.60;0.80;;;;;;;5.58;52.11;99508.00;4948621;28;20507;-74
2022/02/19 06:43:49;;;;;;;7.93;1.20;;;;;;;5.55;52.05;99536.75;4961041;28;20042;-74
2022/02/19 06:46:17;;;;;;;5.40;0.95;;;;;;;5.69;51.72;99527.16;4963496;28;20035;-74
2022/02/19 06:48:42;;;;;;;4.90;1.63;;;;;;;5.69;51.69;99550.72;4976049;28;20088;-74
2022/02/19 06:51:08;;;;;;;7.53;1.52;;;;;;;5.78;51.68;99549.81;4953242;28;20152;-74
2022/02/19 06:53:36;;;;;;;6.60;1.48;;;;;;;5.78;51.18;99541.94;4978722;28;20027;-75
2022/02/19 06:56:03;;;;;;;5.55;1.45;;;;;;;5.89;51.15;99549.78;4956453;28;20030;-74
2022/02/19 06:58:30;;;;;;;8.05;1.40;;;;;;;5.84;51.03;99556.78;4983919;28;20406;-74
2022/02/19 07:00:59;;;;;;;6.97;1.25;;;;;;;5.87;50.90;99590.84;4968182;28;20049;-74
2022/02/19 07:03:24;;;;;;;7.07;1.10;;;;;;;5.97;50.68;99576.84;4960058;28;20148;-74
2022/02/19 07:05:56;;;;;;;5.95;1.25;;;;;;;5.89;50.33;99589.06;4946905;28;20118;-75
2022/02/19 07:08:32;;;;;;;4.65;1.02;;;;;;;5.99;50.38;99621.38;4974685;28;20086;-74
2022/02/19 07:10:58;;;;;;;4.18;1.10;;;;;;;5.99;50.98;99606.53;4972885;28;20046;-75
2022/02/19 07:13:24;;;;;;;6.35;1.05;;;;;;;6.00;51.00;99610.91;4962524;28;20046;-75
2022/02/19 07:15:49;;;;;;;8.10;1.42;;;;;;;6.01;50.54;99641.47;4975803;28;20039;-75
2022/02/19 07:18:21;;;;;;;5.97;1.17;;;;;;;6.07;50.23;99619.59;4983104;28;20065;-75
2022/02/19 07:20:54;;;;;;;6.20;1.33;;;;;;;6.06;50.42;99629.22;4967614;28;20521;-75
2022/02/19 07:23:21;;;;;;;5.80;0.80;;;;;;;6.07;50.02;99617.84;4964467;28;20035;-74
2022/02/19 07:25:46;;;;;;;5.00;0.90;;;;;;;6.07;50.10;99635.31;4963080;28;20126;-73
2022/02/19 07:28:12;;;;;;;7.45;1.50;;;;;;;6.19;50.47;99642.31;4968026;28;20116;-74
2022/02/19 07:30:39;;;;;;;7.88;1.52;;;;;;;6.14;50.22;99653.66;4961954;28;20030;-74
2022/02/19 07:33:07;;;;;;;5.22;0.90;;;;;;;6.12;49.32;99676.34;4980084;28;20030;-74
2022/02/19 07:35:43;;;;;;;7.97;1.38;;;;;;;6.10;50.18;99678.13;4959325;28;20035;-74
2022/02/19 07:38:08;;;;;;;6.18;0.90;;;;;;;6.20;50.22;99694.69;4964795;28;20410;-73
2022/02/19 07:40:34;;;;;;;4.95;1.33;;;;;;;6.25;49.81;99690.31;4963538;28;20050;-74
2022/02/19 07:42:59;;;;;;;4.78;1.30;;;;;;;6.23;49.39;99709.53;4983703;28;20031;-74
2022/02/19 07:45:46;;;;;;;6.95;0.68;;;;;;;6.25;49.22;99702.53;4982518;28;20050;-74
2022/02/19 07:48:30;;;;;;;8.50;1.40;;;;;;;6.29;49.47;99720.88;4982482;28;20058;-74
2022/02/19 07:59:50;;;;;;;4.97;1.05;;;;;;;6.35;48.49;99733.97;4963521;28;20486;-74
2022/02/19 08:02:16;;;;;;;5.38;1.20;;;;;;;6.41;48.59;99777.63;4963391;28;20050;-74
2022/02/19 08:04:41;;;;;;;4.95;1.00;;;;;;;6.47;47.90;99771.50;4965993;28;20439;-75
2022/02/19 08:07:06;;;;;;;6.72;1.50;;;;;;;6.52;49.03;99786.38;4950889;28;20046;-74
2022/02/19 08:09:33;;;;;;;4.03;0.85;;;;;;;6.40;48.64;99777.66;4969065;28;20035;-74
2022/02/19 08:11:59;;;;;;;4.88;0.77;;;;;;;6.50;48.42;99851.03;4949893;28;20074;-73
2022/02/19 08:14:24;;;;;;;6.78;1.23;;;;;;;6.51;48.84;99768.88;4982448;28;20120;-74
2022/02/19 08:16:49;;;;;;;5.28;1.17;;;;;;;6.54;49.16;99787.22;4982719;28;20042;-74
2022/02/19 08:19:15;;;;;;;4.43;1.38;;;;;;;6.60;48.48;99815.19;4980937;28;20046;-74
2022/02/19 08:21:41;;;;;;;5.25;1.20;;;;;;;6.62;48.36;99818.69;4977791;28;20033;-74
2022/02/19 08:24:06;;;;;;;6.75;1.73;;;;;;;6.65;49.40;99791.56;4966346;28;20496;-74
2022/02/19 08:26:31;;;;;;;6.93;0.90;;;;;;;6.72;49.54;99803.81;4981633;28;20453;-74
2022/02/19 08:28:57;;;;;;;4.28;0.90;;;;;;;6.70;49.83;99806.41;4984268;28;20038;-74
2022/02/19 08:31:22;;;;;;;4.10;1.08;;;;;;;6.67;48.63;99837.91;4982862;28;20126;-74
2022/02/19 08:33:47;;;;;;;4.93;0.80;;;;;;;6.75;48.46;99822.16;4950049;28;20122;-74
2022/02/19 08:36:13;;;;;;;5.32;0.90;;;;;;;6.83;49.38;99848.38;4982916;28;20122;-74
2022/02/19 08:38:39;;;;;;;10.25;1.10;;;;;;;6.87;49.23;99837.88;4981138;28;20507;-74
2022/02/19 08:41:04;;;;;;;6.07;1.50;;;;;;;6.99;49.11;99850.94;4982584;28;20045;-74
2022/02/19 08:43:30;;;;;;;4.13;0.77;;;;;;;6.87;49.24;99852.75;4983764;28;20045;-75
2022/02/19 08:45:55;;;;;;;3.78;0.80;;;;;;;7.05;48.72;99838.69;4982177;28;20045;-74
2022/02/19 08:48:21;;;;;;;3.83;1.00;;;;;;;7.00;49.58;99860.56;4978445;28;20042;-72
2022/02/19 08:50:47;;;;;;;8.52;1.42;;;;;;;7.10;48.97;99871.03;4967281;28;20035;-74
2022/02/19 08:53:13;;;;;;;4.10;0.98;;;;;;;7.07;49.23;99860.56;4974221;28;20066;-74
2022/02/19 08:55:40;;;;;;;6.47;1.20;;;;;;;7.18;49.84;99861.41;4979872;28;20057;-74
2022/02/19 08:58:07;;;;;;;5.28;0.80;;;;;;;7.11;49.00;99859.69;4981727;28;20042;-75
2022/02/19 09:00:32;;;;;;;4.18;1.10;;;;;;;7.06;48.61;99848.31;4981645;28;20052;-74
2022/02/19 09:02:57;;;;;;;7.82;1.60;;;;;;;6.98;48.19;99885.06;4982512;28;20129;-74
2022/02/19 09:05:23;;;;;;;6.10;1.20;;;;;;;7.18;49.13;99885.03;4978122;28;20041;-73
2022/02/19 09:07:48;;;;;;;6.65;1.45;;;;;;;7.30;48.02;99913.84;4981810;28;20064;-74
2022/02/19 09:10:15;;;;;;;8.13;1.58;;;;;;;7.46;48.03;99894.53;4965753;28;20061;-74
2022/02/19 09:12:46;;;;;;;4.97;1.13;;;;;;;7.40;47.58;99891.94;4983803;28;20096;-75
2022/02/19 09:15:12;;;;;;;5.50;1.20;;;;;;;7.44;47.51;99898.94;4966443;28;20035;-75
2022/02/19 09:17:37;;;;;;;4.85;0.93;;;;;;;7.53;46.99;99908.53;4982042;28;20450;-74
2022/02/19 09:20:03;;;;;;;6.63;1.10;;;;;;;7.40;47.31;99915.56;4975061;28;20046;-75
2022/02/19 09:22:28;;;;;;;4.90;1.02;;;;;;;7.52;47.67;99914.69;4983364;28;20073;-74
2022/02/19 09:24:53;;;;;;;5.00;0.85;;;;;;;7.56;47.61;99926.03;4980264;28;20034;-75
2022/02/19 09:27:19;;;;;;;5.97;1.13;;;;;;;7.55;47.91;99913.78;4981049;28;20038;-75
2022/02/19 09:29:44;;;;;;;5.10;1.50;;;;;;;7.62;48.08;99928.63;4960441;28;20392;-75
2022/02/19 09:32:09;;;;;;;3.67;1.15;;;;;;;7.75;47.97;99943.44;4970478;28;20506;-75
2022/02/19 09:34:35;;;;;;;6.57;1.05;;;;;;;7.78;47.36;99956.59;4982278;28;20498;-75
2022/02/19 09:37:00;;;;;;;7.63;1.80;;;;;;;7.77;45.92;99967.97;4980992;28;20098;-75
2022/02/19 09:39:25;;;;;;;8.10;1.00;;;;;;;7.92;47.01;99976.69;4962016;28;20415;-75
2022/02/19 09:41:51;;;;;;;10.07;2.28;;;;;;;7.90;47.47;99968.78;4975937;28;20038;-75
2022/02/19 09:44:18;;;;;;;7.22;1.50;;;;;;;8.02;48.02;99994.16;4974860;28;20061;-74
2022/02/19 09:46:48;;;;;;;6.35;1.33;;;;;;;8.13;46.99;99979.22;4973436;28;20070;-75
2022/02/19 09:49:17;;;;;;;5.78;1.35;;;;;;;7.98;46.59;100003.78;4976688;28;20495;-74
2022/02/19 09:51:42;;;;;;;6.90;1.35;;;;;;;8.00;46.25;99980.16;4971154;28;20483;-74
2022/02/19 09:54:08;;;;;;;4.82;1.00;;;;;;;8.01;46.06;99995.03;4982092;28;20041;-75
2022/02/19 09:56:33;;;;;;;5.75;1.38;;;;;;;8.04;46.21;99998.53;4979506;28;20042;-74
2022/02/19 09:58:59;;;;;;;5.85;1.33;;;;;;;7.99;44.92;99988.91;4977608;28;20073;-74
2022/02/19 10:01:26;;;;;;;4.93;1.13;;;;;;;7.92;46.15;100018.72;4978465;28;20042;-75
2022/02/19 10:03:57;;;;;;;5.43;1.15;;;;;;;7.92;46.41;100008.22;4974383;28;20062;-75
2022/02/19 10:06:36;;;;;;;8.85;1.70;;;;;;;7.79;45.42;100033.66;4972202;28;20376;-75
2022/02/19 10:09:12;;;;;;;3.72;1.02;;;;;;;7.90;45.81;100019.59;4965150;28;20039;-75
2022/02/19 10:11:38;;;;;;;6.82;1.20;;;;;;;7.96;46.25;100026.56;4976472;28;20038;-74
2022/02/19 10:14:25;;;;;;;6.55;1.80;;;;;;;7.98;47.47;100040.59;4978876;28;20042;-75
2022/02/19 10:17:03;;;;;;;7.35;1.38;;;;;;;7.86;46.15;100040.66;4982685;28;20057;-75
2022/02/19 10:19:29;;;;;;;5.47;1.42;;;;;;;7.73;48.04;100041.53;4979395;28;20059;-75
2022/02/19 10:22:11;;;;;;;3.97;1.15;;;;;;;7.75;47.33;100031.91;4981027;28;20077;-75
2022/02/19 10:24:37;;;;;;;6.05;1.60;;;;;;;7.79;47.40;100052.03;4962072;28;20046;-72
2022/02/19 10:27:03;;;;;;;7.28;1.70;;;;;;;8.12;47.10;100045.78;4963415;28;20044;-72
2022/02/19 10:29:31;;;;;;;6.70;1.75;;;;;;;8.16;46.11;100108.00;4982793;28;20038;-72
2022/02/19 10:31:56;;;;;;;4.40;1.17;;;;;;;8.36;45.64;100102.66;4981126;28;20053;-73
2022/02/19 10:34:22;;;;;;;5.40;1.20;;;;;;;8.22;44.67;100092.19;4981440;28;20486;-73
2022/02/19 10:36:54;;;;;;;6.32;1.33;;;;;;;8.34;45.21;100081.63;4979648;28;20065;-72
2022/02/19 10:39:27;;;;;;;7.43;1.75;;;;;;;8.36;45.39;100105.31;4975149;28;20092;-73
2022/02/19 10:41:54;;;;;;;9.82;1.98;;;;;;;8.45;44.69;100099.16;4973507;28;20141;-72
2022/02/19 10:44:35;;;;;;;5.35;1.77;;;;;;;8.15;43.82;100127.28;4974417;28;20042;-72
2022/02/19 10:47:20;;;;;;;12.18;3.38;;;;;;;8.11;43.95;100109.75;4978506;28;20117;-72
2022/02/19 10:50:12;;;;;;;6.95;2.38;;;;;;;8.03;43.37;100154.44;4971837;28;20537;-72
2022/02/19 10:52:42;;;;;;;3.95;1.08;;;;;;;8.14;43.75;100130.75;4979839;28;20030;-73
2022/02/19 10:55:14;;;;;;;8.43;1.48;;;;;;;8.13;42.98;100137.78;4977022;28;20038;-72
2022/02/19 10:57:44;;;;;;;8.20;1.17;;;;;;;7.97;43.47;100133.44;4979847;28;20097;-73
2022/02/19 11:00:15;;;;;;;2.90;0.80;;;;;;;7.96;43.59;100178.97;4982694;28;20391;-72
2022/02/19 11:02:41;;;;;;;5.28;1.42;;;;;;;7.99;43.73;100151.81;4980200;28;20480;-73
2022/02/19 11:05:08;;;;;;;4.22;0.95;;;;;;;8.12;43.90;100135.16;4979603;28;20097;-73
2022/02/19 11:07:36;;;;;;;5.68;1.20;;;;;;;8.17;44.10;100146.53;4974035;28;20035;-72
2022/02/19 11:10:02;;;;;;;5.22;1.23;;;;;;;8.29;43.94;100138.63;4974246;28;20169;-72
2022/02/19 11:12:29;;;;;;;6.82;1.42;;;;;;;8.53;44.21;100139.44;4971666;28;20089;-72
2022/02/19 11:14:55;;;;;;;8.23;1.50;;;;;;;8.39;43.02;100160.53;4980126;28;20118;-73
2022/02/19 11:17:22;;;;;;;3.05;1.00;;;;;;;8.47;43.48;100135.09;4978557;28;20413;-76
2022/02/19 11:19:48;;;;;;;6.80;1.13;;;;;;;8.44;42.71;100181.56;4978181;28;20121;-73
2022/02/19 11:22:15;;;;;;;3.85;0.90;;;;;;;8.39;44.07;100141.22;4983568;28;20041;-73
2022/02/19 11:24:43;;;;;;;6.85;1.48;;;;;;;8.37;42.95;100179.78;4983155;28;20045;-73
2022/02/19 11:27:10;;;;;;;6.22;1.60;;;;;;;8.40;43.29;100159.66;4980220;28;20129;-73
2022/02/19 11:29:37;;;;;;;4.47;1.15;;;;;;;8.51;43.55;100172.75;4967459;28;20033;-73
2022/02/19 11:32:04;;;;;;;5.43;1.65;;;;;;;8.49;44.26;100175.41;4985313;28;20177;-73
2022/02/19 11:34:29;;;;;;;4.60;1.30;;;;;;;8.49;43.60;100167.53;4982948;28;20023;-73
2022/02/19 11:37:16;;;;;;;5.30;1.10;;;;;;;8.56;42.92;100168.34;4986047;28;20057;-73
2022/02/19 11:40:10;;;;;;;5.47;1.42;;;;;;;8.49;43.20;100162.25;4979735;28;20101;-73
2022/02/19 11:42:39;;;;;;;9.68;1.42;;;;;;;8.53;43.17;100165.75;4981679;28;20090;-74
2022/02/19 11:45:25;;;;;;;3.17;0.90;;;;;;;8.56;43.49;100176.25;4950148;28;20060;-73
2022/02/19 11:48:06;;;;;;;6.03;1.08;;;;;;;8.45;43.23;100178.06;4982470;28;20088;-73
2022/02/19 11:50:33;;;;;;;10.95;1.25;;;;;;;8.37;43.43;100190.31;4982894;28;20513;-73
2022/02/19 11:53:11;;;;;;;6.72;1.33;;;;;;;8.44;44.21;100202.59;4980584;28;20038;-73